createdAt,value
2018-10-01T00:01:38.156Z,96469.78
2018-10-01T00:04:07.394Z,96469.38
2018-10-01T00:06:38.217Z,96465.13
2018-10-01T00:09:09.591Z,96469.34
2018-10-01T00:11:40.680Z,96463.86
2018-10-01T00:14:09.897Z,96463.00
2018-10-01T00:16:38.985Z,96464.68
2018-10-01T00:19:13.439Z,96458.79
2018-10-01T00:21:47.664Z,96457.08
2018-10-01T00:24:23.532Z,96457.08
2018-10-01T00:26:52.651Z,96457.94
2018-10-01T00:29:25.413Z,96448.66
2018-10-01T00:31:54.533Z,96450.73
2018-10-01T00:34:25.693Z,96445.27
2018-10-01T00:36:54.917Z,96451.19
2018-10-01T00:39:23.973Z,96446.08
2018-10-01T00:41:55.372Z,96440.98
2018-10-01T00:44:31.409Z,96439.68
2018-10-01T00:47:00.510Z,96437.55
2018-10-01T00:49:29.686Z,96428.23
2018-10-01T00:51:58.798Z,96432.00
2018-10-01T00:54:27.928Z,96433.27
2018-10-01T00:56:57.083Z,96435.80
2018-10-01T00:59:26.250Z,96434.52
2018-10-01T01:01:57.945Z,96433.27
2018-10-01T01:04:27.175Z,96432.89
2018-10-01T01:06:58.980Z,96428.23
2018-10-01T01:09:28.303Z,96433.34
2018-10-01T01:12:01.574Z,96434.20
2018-10-01T01:14:33.797Z,96435.88
2018-10-01T01:17:02.928Z,96435.05
2018-10-01T01:19:32.003Z,96440.98
2018-10-01T01:22:01.121Z,96438.48
2018-10-01T01:24:30.271Z,96443.14
2018-10-01T01:27:01.922Z,96447.80
2018-10-01T01:29:32.914Z,96461.73
2018-10-01T01:32:04.630Z,96468.07
2018-10-01T01:34:35.575Z,96466.39
2018-10-01T01:37:04.726Z,96464.72
2018-10-01T01:39:35.533Z,96458.79
2018-10-01T01:42:04.654Z,96452.89
2018-10-01T01:44:33.751Z,96457.94
2018-10-01T01:47:02.902Z,96463.86
2018-10-01T01:49:32.094Z,96453.75
2018-10-01T01:52:01.166Z,96455.88
2018-10-01T01:54:30.235Z,96442.79
2018-10-01T01:56:59.366Z,96450.39
2018-10-01T01:59:28.515Z,96441.52
2018-10-01T02:01:57.630Z,96442.78
2018-10-01T02:04:29.043Z,96444.05
2018-10-01T02:06:58.151Z,96448.70
2018-10-01T02:09:30.619Z,96439.42
2018-10-01T02:11:59.721Z,96435.20
2018-10-01T02:14:28.793Z,96436.05
2018-10-01T02:16:57.969Z,96428.00
2018-10-01T02:19:27.085Z,96424.23
2018-10-01T02:21:56.296Z,96419.16
2018-10-01T02:24:27.486Z,96419.14
2018-10-01T02:26:58.180Z,96412.39
2018-10-01T02:29:27.338Z,96414.09
2018-10-01T02:31:56.445Z,96413.69
2018-10-01T02:34:25.670Z,96423.38
2018-10-01T02:36:56.412Z,96430.14
2018-10-01T02:39:25.562Z,96424.22
2018-10-01T02:41:54.725Z,96422.96
2018-10-01T02:44:23.830Z,96424.63
2018-10-01T02:46:52.906Z,96413.25
2018-10-01T02:49:25.219Z,96412.41
2018-10-01T02:51:59.517Z,96414.09
2018-10-01T02:54:29.963Z,96415.80
2018-10-01T02:56:59.269Z,96409.86
2018-10-01T02:59:29.351Z,96410.72
2018-10-01T03:02:01.596Z,96410.73
2018-10-01T03:04:31.465Z,96407.33
2018-10-01T03:07:03.633Z,96410.72
2018-10-01T03:09:33.303Z,96403.55
2018-10-01T03:12:04.962Z,96392.12
2018-10-01T03:14:34.776Z,96389.59
2018-10-01T03:17:04.949Z,96401.44
2018-10-01T03:19:34.950Z,96399.73
2018-10-01T03:22:04.715Z,96402.27
2018-10-01T03:24:36.455Z,96394.66
2018-10-01T03:27:06.680Z,96392.97
2018-10-01T03:29:39.116Z,96395.50
2018-10-01T03:32:09.087Z,96392.55
2018-10-01T03:34:38.982Z,96395.49
2018-10-01T03:37:08.846Z,96394.66
2018-10-01T03:39:38.832Z,96401.41
2018-10-01T03:42:09.190Z,96398.88
2018-10-01T03:44:39.216Z,96398.05
2018-10-01T03:47:09.901Z,96395.50
2018-10-01T03:49:40.106Z,96397.19
2018-10-01T03:52:09.795Z,96392.11
2018-10-01T03:54:39.970Z,96390.84
2018-10-01T03:57:10.653Z,96379.42
2018-10-01T03:59:40.949Z,96386.22
2018-10-01T04:02:11.252Z,96386.64
2018-10-01T04:04:41.081Z,96381.98
2018-10-01T04:07:11.293Z,96388.31
2018-10-01T04:09:41.239Z,96390.43
2018-10-01T04:12:11.320Z,96393.81
2018-10-01T04:14:41.418Z,96395.49
2018-10-01T04:17:11.388Z,96392.12
2018-10-01T04:19:41.457Z,96399.73
2018-10-01T04:22:11.244Z,96392.12
2018-10-01T04:24:41.247Z,96398.03
2018-10-01T04:27:11.146Z,96391.69
2018-10-01T04:29:41.459Z,96392.95
2018-10-01T04:32:11.347Z,96395.49
2018-10-01T04:34:41.304Z,96390.42
2018-10-01T04:37:11.181Z,96394.67
2018-10-01T04:39:41.078Z,96398.89
2018-10-01T04:42:10.923Z,96400.98
2018-10-01T04:44:40.917Z,96406.50
2018-10-01T04:47:10.713Z,96403.12
2018-10-01T04:49:40.939Z,96409.04
2018-10-01T04:52:10.788Z,96409.04
2018-10-01T04:54:40.716Z,96412.43
2018-10-01T04:57:10.773Z,96416.23
2018-10-01T04:59:40.714Z,96419.19
2018-10-01T05:02:10.659Z,96415.81
2018-10-01T05:04:40.682Z,96420.47
2018-10-01T05:07:10.704Z,96421.73
2018-10-01T05:09:40.891Z,96420.02
2018-10-01T05:12:25.577Z,96420.02
2018-10-01T05:14:55.565Z,96417.48
2018-10-01T05:17:25.740Z,96427.63
2018-10-01T05:19:55.738Z,96425.09
2018-10-01T05:22:25.708Z,96428.91
2018-10-01T05:24:55.466Z,96427.63
2018-10-01T05:27:25.483Z,96425.95
2018-10-01T05:29:55.376Z,96432.31
2018-10-01T05:32:25.276Z,96435.70
2018-10-01T05:34:55.134Z,96435.25
2018-10-01T05:37:24.992Z,96439.51
2018-10-01T05:39:55.044Z,96436.11
2018-10-01T05:42:24.644Z,96432.72
2018-10-01T05:44:54.667Z,96437.80
2018-10-01T05:47:24.600Z,96432.72
2018-10-01T05:49:57.436Z,96445.00
2018-10-01T05:52:27.420Z,96444.58
2018-10-01T05:54:57.277Z,96439.51
2018-10-01T05:57:27.039Z,96441.19
2018-10-01T05:59:56.963Z,96445.41
2018-10-01T06:02:26.825Z,96450.48
2018-10-01T06:04:57.032Z,96451.34
2018-10-01T06:07:26.851Z,96456.41
2018-10-01T06:09:56.712Z,96457.67
2018-10-01T06:12:57.514Z,96464.02
2018-10-01T06:15:27.296Z,96462.34
2018-10-01T06:17:57.011Z,96468.69
2018-10-01T06:20:26.952Z,96465.70
2018-10-01T06:22:56.922Z,96470.78
2018-10-01T06:25:26.863Z,96468.24
2018-10-01T06:27:56.780Z,96480.95
2018-10-01T06:30:26.782Z,96473.75
2018-10-01T06:32:56.453Z,96483.08
2018-10-01T06:35:26.463Z,96478.41
2018-10-01T06:37:56.637Z,96482.63
2018-10-01T06:40:26.649Z,96486.02
2018-10-01T06:42:56.644Z,96493.64
2018-10-01T06:45:26.460Z,96491.96
2018-10-01T06:47:58.967Z,96502.11
2018-10-01T06:50:28.649Z,96500.40
2018-10-01T06:52:58.718Z,96508.45
2018-10-01T06:55:28.824Z,96508.03
2018-10-01T06:57:58.956Z,96508.03
2018-10-01T07:00:28.884Z,96513.52
2018-10-01T07:02:58.833Z,96508.88
2018-10-01T07:05:28.886Z,96517.35
2018-10-01T07:07:58.648Z,96512.27
2018-10-01T07:10:28.473Z,96515.22
2018-10-01T07:12:58.364Z,96513.95
2018-10-01T07:15:30.782Z,96513.95
2018-10-01T07:18:00.620Z,96510.58
2018-10-01T07:20:30.642Z,96513.10
2018-10-01T07:23:00.809Z,96513.95
2018-10-01T07:25:30.824Z,96517.34
2018-10-01T07:28:00.996Z,96521.14
2018-10-01T07:30:30.816Z,96515.22
2018-10-01T07:33:00.731Z,96523.29
2018-10-01T07:35:30.835Z,96525.80
2018-10-01T07:38:00.913Z,96523.27
2018-10-01T07:40:33.101Z,96527.92
2018-10-01T07:43:03.731Z,96529.21
2018-10-01T07:45:33.660Z,96539.39
2018-10-01T07:48:03.544Z,96533.45
2018-10-01T07:50:33.279Z,96539.39
2018-10-01T07:53:03.019Z,96539.78
2018-10-01T07:55:32.843Z,96540.19
2018-10-01T07:58:02.354Z,96547.83
2018-10-01T08:00:32.198Z,96549.52
2018-10-01T08:03:01.742Z,96550.36
2018-10-01T08:05:31.460Z,96542.73
2018-10-01T08:08:01.178Z,96554.59
2018-10-01T08:10:30.770Z,96550.34
2018-10-01T08:13:00.646Z,96555.45
2018-10-01T08:15:30.292Z,96553.72
2018-10-01T08:17:59.886Z,96566.45
2018-10-01T08:20:31.772Z,96574.09
2018-10-01T08:23:01.441Z,96565.20
2018-10-01T08:25:31.205Z,96575.78
2018-10-01T08:28:00.884Z,96575.78
2018-10-01T08:30:30.487Z,96574.09
2018-10-01T08:33:00.087Z,96583.41
2018-10-01T08:35:29.967Z,96587.63
2018-10-01T08:37:59.541Z,96587.20
2018-10-01T08:40:29.222Z,96592.27
2018-10-01T08:42:58.867Z,96592.70
2018-10-01T08:45:28.536Z,96600.30
2018-10-01T08:47:58.297Z,96596.07
2018-10-01T08:50:31.901Z,96593.52
2018-10-01T08:53:22.130Z,96599.46
2018-10-01T08:55:52.513Z,96594.34
2018-10-01T08:58:22.271Z,96602.39
2018-10-01T09:00:52.487Z,96597.31
2018-10-01T09:03:22.230Z,96593.52
2018-10-01T09:05:52.679Z,96602.00
2018-10-01T09:08:22.391Z,96598.18
2018-10-01T09:10:52.891Z,96608.38
2018-10-01T09:13:22.504Z,96611.34
2018-10-01T09:15:53.178Z,96607.11
2018-10-01T09:18:22.853Z,96611.34
2018-10-01T09:20:53.201Z,96617.72
2018-10-01T09:23:22.836Z,96618.11
2018-10-01T09:25:53.048Z,96615.98
2018-10-01T09:28:22.773Z,96624.04
2018-10-01T09:30:53.046Z,96625.74
2018-10-01T09:33:22.603Z,96625.74
2018-10-01T09:35:53.092Z,96629.12
2018-10-01T09:38:22.780Z,96627.85
2018-10-01T09:40:53.223Z,96639.28
2018-10-01T09:43:22.886Z,96635.47
2018-10-01T09:45:53.125Z,96640.13
2018-10-01T09:48:25.078Z,96639.30
2018-10-01T09:50:54.837Z,96636.31
2018-10-01T09:53:24.451Z,96635.91
2018-10-01T09:55:54.039Z,96634.21
2018-10-01T09:58:23.767Z,96640.57
2018-10-01T10:00:58.825Z,96646.89
2018-10-01T10:03:28.422Z,96641.81
2018-10-01T10:05:58.156Z,96644.81
2018-10-01T10:08:27.842Z,96643.09
2018-10-01T10:10:57.384Z,96640.16
2018-10-01T10:13:27.084Z,96646.52
2018-10-01T10:15:56.692Z,96654.56
2018-10-01T10:18:26.338Z,96646.94
2018-10-01T10:20:56.338Z,96646.05
2018-10-01T10:23:26.052Z,96647.73
2018-10-01T10:25:57.390Z,96642.22
2018-10-01T10:28:27.036Z,96651.08
2018-10-01T10:30:56.728Z,96661.23
2018-10-01T10:33:26.489Z,96658.69
2018-10-01T10:35:59.870Z,96654.44
2018-10-01T10:38:29.850Z,96658.70
2018-10-01T10:40:59.362Z,96654.41
2018-10-01T10:43:29.041Z,96663.30
2018-10-01T10:45:58.658Z,96663.28
2018-10-01T10:48:28.334Z,96657.74
2018-10-01T10:51:00.107Z,96661.17
2018-10-01T10:53:29.810Z,96664.09
2018-10-01T10:56:01.516Z,96668.75
2018-10-01T10:58:31.131Z,96670.44
2018-10-01T11:01:03.176Z,96668.70
2018-10-01T11:03:32.958Z,96664.45
2018-10-01T11:06:02.655Z,96671.66
2018-10-01T11:08:34.510Z,96675.44
2018-10-01T11:11:04.770Z,96674.55
2018-10-01T11:16:06.364Z,96664.36
2018-10-01T11:18:37.872Z,96667.30
2018-10-01T11:21:07.605Z,96666.78
2018-10-01T11:23:36.694Z,96655.72
2018-10-01T11:26:07.952Z,96659.92
2018-10-01T11:28:38.817Z,96655.55
2018-10-01T11:31:07.962Z,96658.80
2018-10-01T11:33:41.163Z,96660.36
2018-10-01T11:36:10.212Z,96664.93
2018-10-01T11:38:39.329Z,96665.20
2018-10-01T11:41:08.714Z,96664.55
2018-10-01T11:43:37.978Z,96664.88
2018-10-01T11:46:07.091Z,96655.59
2018-10-01T11:48:36.203Z,96656.91
2018-10-01T11:51:05.399Z,96667.61
2018-10-01T11:53:34.511Z,96663.83
2018-10-01T11:56:03.720Z,96660.00
2018-10-01T11:58:32.913Z,96666.25
2018-10-01T12:01:02.308Z,96667.44
2018-10-01T12:03:31.533Z,96668.25
2018-10-01T12:06:00.594Z,96675.00
2018-10-01T12:08:29.747Z,96674.00
2018-10-01T12:10:58.905Z,96674.28
2018-10-01T12:13:28.051Z,96669.98
2018-10-01T12:15:57.399Z,96675.12
2018-10-01T12:18:26.315Z,96676.08
2018-10-01T12:20:55.470Z,96680.78
2018-10-01T12:23:24.631Z,96679.96
2018-10-01T12:25:54.337Z,96685.43
2018-10-01T12:28:23.856Z,96690.00
2018-10-01T12:35:46.692Z,96683.38
2018-10-01T12:38:15.925Z,96685.23
2018-10-01T12:40:45.476Z,96683.25
2018-10-01T12:43:14.711Z,96689.27
2018-10-01T12:45:43.963Z,96687.86
2018-10-01T12:48:13.002Z,96693.20
2018-10-01T12:50:42.211Z,96694.02
2018-10-01T12:53:11.352Z,96704.70
2018-10-01T12:55:40.459Z,96702.54
2018-10-01T12:58:09.573Z,96708.56
2018-10-01T13:00:38.792Z,96699.05
2018-10-01T13:03:08.042Z,96708.02
2018-10-01T13:05:37.324Z,96712.80
2018-10-01T13:08:06.452Z,96716.66
2018-10-01T13:10:35.717Z,96714.45
2018-10-01T13:13:04.928Z,96719.45
2018-10-01T13:15:34.036Z,96713.49
2018-10-01T13:18:03.216Z,96708.95
2018-10-01T13:20:32.374Z,96711.06
2018-10-01T13:23:01.549Z,96711.11
2018-10-01T13:25:30.683Z,96708.64
2018-10-01T13:27:59.890Z,96711.19
2018-10-01T13:30:29.074Z,96715.87
2018-10-01T13:32:58.217Z,96708.59
2018-10-01T13:35:27.413Z,96717.48
2018-10-01T13:37:56.708Z,96720.48
2018-10-01T13:40:25.853Z,96720.08
2018-10-01T13:42:54.979Z,96723.98
2018-10-01T13:45:24.505Z,96733.40
2018-10-01T13:47:54.746Z,96736.86
2018-10-01T13:50:24.631Z,96724.14
2018-10-01T13:52:54.670Z,96741.16
2018-10-01T13:55:24.577Z,96744.16
2018-10-01T13:57:54.703Z,96741.20
2018-10-01T14:00:24.692Z,96747.63
2018-10-01T14:02:55.081Z,96753.63
2018-10-01T14:05:24.723Z,96748.07
2018-10-01T14:07:56.937Z,96758.33
2018-10-01T14:10:26.049Z,96757.13
2018-10-01T14:12:55.281Z,96751.64
2018-10-01T14:15:24.777Z,96760.98
2018-10-01T14:18:00.076Z,96762.70
2018-10-01T14:20:29.249Z,96772.08
2018-10-01T14:22:58.287Z,96776.33
2018-10-01T14:25:27.604Z,96784.86
2018-10-01T14:27:56.648Z,96780.20
2018-10-01T14:30:25.846Z,96779.81
2018-10-01T14:32:55.344Z,96784.91
2018-10-01T14:35:25.327Z,96790.89
2018-10-01T14:37:55.110Z,96784.96
2018-10-01T14:40:25.160Z,96794.30
2018-10-01T14:42:55.123Z,96801.55
2018-10-01T14:45:25.135Z,96806.64
2018-10-01T14:47:55.164Z,96808.78
2018-10-01T14:50:25.266Z,96808.36
2018-10-01T14:52:55.204Z,96817.29
2018-10-01T14:55:25.273Z,96820.23
2018-10-01T14:57:55.276Z,96825.77
2018-10-01T15:00:25.471Z,96827.88
2018-10-01T15:02:55.292Z,96823.22
2018-10-01T15:05:26.240Z,96824.92
2018-10-01T15:07:55.486Z,96830.47
2018-10-01T15:10:25.632Z,96841.53
2018-10-01T15:12:55.422Z,96843.63
2018-10-01T15:15:25.744Z,96847.03
2018-10-01T15:17:55.911Z,96857.21
2018-10-01T15:20:25.992Z,96864.02
2018-10-01T15:22:56.416Z,96863.15
2018-10-01T15:25:26.129Z,96878.82
2018-10-01T15:27:56.118Z,96876.67
2018-10-01T15:30:26.264Z,96872.83
2018-10-01T15:32:56.088Z,96883.00
2018-10-01T15:35:26.373Z,96884.25
2018-10-01T15:37:56.291Z,96870.67
2018-10-01T15:40:28.265Z,96889.33
2018-10-01T15:42:58.176Z,96889.33
2018-10-01T15:45:27.906Z,96885.94
2018-10-01T15:47:57.625Z,96889.30
2018-10-01T15:50:27.444Z,96891.84
2018-10-01T15:52:57.159Z,96894.38
2018-10-01T15:55:26.776Z,96896.92
2018-10-01T15:57:56.409Z,96905.38
2018-10-01T16:00:26.547Z,96896.48
2018-10-01T16:02:56.881Z,96904.10
2018-10-01T16:05:26.463Z,96903.69
2018-10-01T16:07:56.821Z,96907.09
2018-10-01T16:10:26.554Z,96914.72
2018-10-01T16:12:56.896Z,96918.95
2018-10-01T16:15:28.466Z,96923.98
2018-10-01T16:17:57.982Z,96929.07
2018-10-01T16:20:27.508Z,96929.89
2018-10-01T16:22:57.150Z,96938.38
2018-10-01T16:25:26.797Z,96944.27
2018-10-01T16:27:59.146Z,96939.19
2018-10-01T16:30:28.840Z,96946.77
2018-10-01T16:32:58.476Z,96949.30
2018-10-01T16:35:28.202Z,96944.18
2018-10-01T16:37:57.928Z,96951.80
2018-10-01T16:40:27.523Z,96954.33
2018-10-01T16:42:57.164Z,96955.61
2018-10-01T16:45:26.957Z,96958.95
2018-10-01T16:47:57.306Z,96957.69
2018-10-01T16:50:27.140Z,96958.91
2018-10-01T16:52:57.131Z,96962.72
2018-10-01T16:55:27.029Z,96959.36
2018-10-01T16:57:57.387Z,96969.94
2018-10-01T17:00:27.172Z,96981.38
2018-10-01T17:02:57.634Z,96982.22
2018-10-01T17:05:28.177Z,96984.70
2018-10-01T17:07:59.502Z,96989.79
2018-10-01T17:10:29.211Z,96994.86
2018-10-01T17:12:59.227Z,96997.34
2018-10-01T17:15:28.935Z,96999.07
2018-10-01T17:17:58.674Z,97003.28
2018-10-01T17:20:30.180Z,97000.69
2018-10-01T17:23:01.545Z,97000.25
2018-10-01T17:25:31.258Z,97003.19
2018-10-01T17:28:02.862Z,97005.67
2018-10-01T17:30:32.636Z,97012.44
2018-10-01T17:33:02.411Z,97013.29
2018-10-01T17:35:32.176Z,97020.05
2018-10-01T17:38:01.895Z,97020.03
2018-10-01T17:40:31.784Z,97020.43
2018-10-01T17:43:01.557Z,97022.49
2018-10-01T17:45:32.994Z,97029.29
2018-10-01T17:48:02.784Z,97033.50
2018-10-01T17:50:32.597Z,97040.25
2018-10-01T17:53:02.550Z,97041.06
2018-10-01T17:55:32.292Z,97042.30
2018-10-01T17:58:03.687Z,97047.77
2018-10-01T18:00:37.798Z,97044.36
2018-10-01T18:03:09.707Z,97047.75
2018-10-01T18:05:39.576Z,97051.95
2018-10-01T18:08:09.423Z,97052.33
2018-10-01T18:10:40.834Z,97057.75
2018-10-01T18:13:17.960Z,97054.33
2018-10-01T18:15:47.808Z,97065.31
2018-10-01T18:18:17.813Z,97063.17
2018-10-01T18:20:47.905Z,97061.88
2018-10-01T18:23:17.901Z,97064.83
2018-10-01T18:25:48.329Z,97075.33
2018-10-01T18:28:18.173Z,97078.66
2018-10-01T18:30:53.608Z,97074.37
2018-10-01T18:33:24.135Z,97076.01
2018-10-01T18:35:56.952Z,97078.47
2018-10-01T18:38:28.834Z,97075.05
2018-10-01T18:41:00.323Z,97080.09
2018-10-01T18:43:31.964Z,97073.72
2018-10-01T18:46:02.153Z,97076.64
2018-10-01T18:48:36.028Z,97078.67
2018-10-01T18:51:09.719Z,97077.34
2018-10-01T18:56:12.785Z,97090.38
2018-10-01T18:58:42.257Z,97093.30
2018-10-01T19:01:14.083Z,97092.04
2018-10-01T19:03:45.774Z,97098.44
2018-10-01T19:06:20.323Z,97100.91
2018-10-01T19:08:49.821Z,97100.45
2018-10-01T19:11:19.676Z,97099.13
2018-10-01T19:13:49.190Z,97118.59
2018-10-01T19:16:20.380Z,97119.47
2018-10-01T19:18:52.640Z,97120.34
2018-10-01T19:21:22.634Z,97130.42
2018-10-01T19:23:55.078Z,97135.44
2018-10-01T19:26:24.998Z,97136.18
2018-10-01T19:28:57.505Z,97131.83
2018-10-01T19:44:26.423Z,97124.14
2018-10-01T19:46:56.383Z,97132.42
2018-10-01T19:49:28.731Z,97126.90
2018-10-01T19:52:01.570Z,97128.53
2018-10-01T19:54:32.873Z,97123.85
2018-10-01T19:57:05.930Z,97142.37
2018-10-01T19:59:40.722Z,97132.16
2018-10-01T20:02:10.227Z,97131.36
2018-10-01T20:04:41.919Z,97133.39
2018-10-01T20:07:16.134Z,97136.27
2018-10-01T20:09:48.552Z,97138.30
2018-10-01T20:12:23.623Z,97133.73
2018-10-01T20:14:55.349Z,97142.25
2018-10-01T20:17:29.867Z,97145.70
2018-10-01T20:19:59.404Z,97145.33
2018-10-01T20:22:34.554Z,97145.73
2018-10-01T20:25:03.996Z,97144.91
2018-10-01T20:27:33.421Z,97139.83
2018-10-01T20:30:02.864Z,97146.55
2018-10-01T20:32:33.773Z,97159.22
2018-10-01T20:35:05.815Z,97160.02
2018-10-01T20:37:37.283Z,97169.37
2018-10-01T20:40:11.339Z,97172.34
2018-10-01T20:42:41.385Z,97180.02
2018-10-01T20:45:14.842Z,97179.52
2018-10-01T20:47:53.073Z,97183.75
2018-10-01T20:50:23.075Z,97180.31
2018-10-01T20:52:55.894Z,97186.62
2018-10-01T20:55:25.775Z,97171.72
2018-10-01T20:57:57.705Z,97189.61
2018-10-01T21:00:29.270Z,97190.86
2018-10-01T21:03:02.125Z,97189.16
2018-10-01T21:05:33.858Z,97190.42
2018-10-01T21:08:05.415Z,97189.99
2018-10-01T21:10:35.222Z,97195.06
2018-10-01T21:13:05.315Z,97198.02
2018-10-01T21:15:35.042Z,97192.53
2018-10-01T21:18:04.935Z,97198.40
2018-10-01T21:20:34.799Z,97200.51
2018-10-01T21:23:06.757Z,97202.11
2018-10-01T21:25:36.773Z,97201.25
2018-10-01T21:28:08.497Z,97207.58
2018-10-01T21:30:40.757Z,97203.80
2018-10-01T21:33:12.266Z,97206.72
2018-10-01T21:35:44.032Z,97207.94
2018-10-01T21:38:15.365Z,97216.84
2018-10-01T21:40:45.224Z,97217.30
2018-10-01T21:43:14.925Z,97211.45
2018-10-01T21:45:44.166Z,97211.52
2018-10-01T21:48:13.268Z,97203.91
2018-10-01T21:50:42.315Z,97203.08
2018-10-01T21:53:11.385Z,97207.72
2018-10-01T21:58:15.229Z,97213.42
2018-10-01T22:00:49.566Z,97207.92
2018-10-01T22:03:20.503Z,97203.13
2018-10-01T22:05:51.567Z,97210.25
2018-10-01T22:08:22.747Z,97209.80
2018-10-01T22:10:54.230Z,97205.95
2018-10-01T22:13:23.316Z,97216.08
2018-10-01T22:15:52.772Z,97213.04
2018-10-01T22:18:24.193Z,97220.59
2018-10-01T22:21:01.197Z,97216.74
2018-10-01T22:24:01.225Z,97222.61
2018-10-01T22:26:30.325Z,97221.80
2018-10-01T22:29:01.898Z,97227.80
2018-10-01T22:31:30.975Z,97227.42
2018-10-01T22:34:00.219Z,97235.06
2018-10-01T22:36:31.625Z,97237.98
2018-10-01T22:39:00.729Z,97237.17
2018-10-01T22:41:29.978Z,97234.51
2018-10-01T22:44:01.969Z,97236.18
2018-10-01T22:46:31.120Z,97241.73
2018-10-01T23:02:03.523Z,97249.46
2018-10-01T23:04:37.106Z,97245.16
2018-10-01T23:07:09.949Z,97253.27
2018-10-01T23:09:45.160Z,97252.70
2018-10-01T23:12:18.135Z,97249.73
2018-10-01T23:14:49.081Z,97252.70
2018-10-01T23:17:18.244Z,97250.10
2018-10-01T23:19:49.764Z,97246.61
2018-10-01T23:22:24.453Z,97250.78
2018-10-01T23:24:53.842Z,97253.25
2018-10-01T23:27:22.925Z,97254.06
2018-10-01T23:29:54.293Z,97253.95
2018-10-01T23:32:27.639Z,97265.34
2018-10-01T23:34:58.903Z,97260.65
2018-10-01T23:37:32.314Z,97271.61
2018-10-01T23:40:03.371Z,97266.55
2018-10-01T23:42:32.465Z,97261.48
2018-10-01T23:45:01.664Z,97272.09
2018-10-01T23:47:30.817Z,97273.78
2018-10-01T23:50:02.834Z,97259.90
2018-10-01T23:52:34.710Z,97272.58
2018-10-01T23:55:03.821Z,97277.61
2018-10-01T23:57:34.521Z,97275.14
